Time,TemperatureF,DewpointF,PressureIn,WindDirection,WindDirectionDegrees,WindSpeedMPH,WindSpeedGustMPH,Humidity,HourlyPrecipIn,Conditions,Clouds,dailyrainin,SoftwareType,DateUTC
2013-09-23 00:05:00,54.3,49.0,30.03,WSW,240,0.0,3.0,81,0.00,,,0.00,weatherlink.com 1.10,2013-09-23 07:05:00,
2013-09-23 00:21:00,54.0,48.0,30.03,SE,145,0.0,3.0,81,0.00,,,0.00,weatherlink.com 1.10,2013-09-23 07:21:00,
2013-09-23 00:36:00,53.8,48.0,30.03,South,186,0.0,1.0,82,0.00,,,0.00,weatherlink.com 1.10,2013-09-23 07:36:00,
2013-09-23 00:51:00,53.8,49.0,30.03,SE,131,1.0,2.0,83,0.00,,,0.00,weatherlink.com 1.10,2013-09-23 07:51:00,
2013-09-23 01:06:00,53.7,48.0,30.03,SE,125,0.0,1.0,82,0.00,,,0.00,weatherlink.com 1.10,2013-09-23 08:06:00,
2013-09-23 01:21:00,53.8,49.0,30.03,ESE,104,1.0,4.0,83,0.00,,,0.00,weatherlink.com 1.10,2013-09-23 08:21:00,
2013-09-23 01:36:00,53.8,49.0,30.03,SSW,212,1.0,2.0,84,0.00,,,0.00,weatherlink.com 1.10,2013-09-23 08:36:00,
2013-09-23 01:51:00,53.7,49.0,30.03,SW,228,1.0,2.0,83,0.00,,,0.00,weatherlink.com 1.10,2013-09-23 08:51:00,
2013-09-23 02:06:00,53.5,49.0,30.04,WNW,293,1.0,2.0,83,0.00,,,0.00,weatherlink.com 1.10,2013-09-23 09:06:00,
2013-09-23 02:21:00,53.5,49.0,30.03,SE,133,1.0,1.0,84,0.00,,,0.00,weatherlink.com 1.10,2013-09-23 09:21:00,
2013-09-23 02:36:00,53.3,49.0,30.03,SW,221,1.0,2.0,84,0.00,,,0.00,weatherlink.com 1.10,2013-09-23 09:36:00,
2013-09-23 02:51:00,52.9,49.0,30.03,SE,138,0.0,1.0,85,0.00,,,0.00,weatherlink.com 1.10,2013-09-23 09:51:00,
2013-09-23 03:06:00,53.1,49.0,30.02,ESE,122,1.0,6.0,85,0.00,,,0.00,weatherlink.com 1.10,2013-09-23 10:06:00,
2013-09-23 03:21:00,52.8,49.0,30.02,SE,141,0.0,1.0,86,0.00,,,0.00,weatherlink.com 1.10,2013-09-23 10:21:00,
2013-09-23 03:36:00,52.6,49.0,30.02,SE,131,0.0,2.0,87,0.00,,,0.00,weatherlink.com 1.10,2013-09-23 10:36:00,
2013-09-23 03:51:00,52.7,49.0,30.02,WNW,283,0.0,1.0,87,0.00,,,0.00,weatherlink.com 1.10,2013-09-23 10:51:00,
2013-09-23 04:06:00,52.9,49.0,30.02,SW,214,0.0,1.0,86,0.00,,,0.00,weatherlink.com 1.10,2013-09-23 11:06:00,
2013-09-23 04:21:00,52.9,49.0,30.02,South,184,1.0,2.0,85,0.00,,,0.00,weatherlink.com 1.10,2013-09-23 11:21:00,
2013-09-23 04:36:00,52.7,49.0,30.02,SSE,148,0.0,2.0,86,0.00,,,0.00,weatherlink.com 1.10,2013-09-23 11:36:00,
2013-09-23 04:51:00,52.3,48.0,30.02,SSE,155,1.0,1.0,86,0.00,,,0.00,weatherlink.com 1.10,2013-09-23 11:51:00,
2013-09-23 05:06:00,52.5,49.0,30.02,SSE,150,1.0,2.0,87,0.00,,,0.00,weatherlink.com 1.10,2013-09-23 12:06:00,
2013-09-23 05:21:00,52.5,49.0,30.02,SSE,158,0.0,2.0,87,0.00,,,0.00,weatherlink.com 1.10,2013-09-23 12:21:00,
2013-09-23 05:36:00,52.7,49.0,30.02,ESE,103,0.0,1.0,88,0.00,,,0.00,weatherlink.com 1.10,2013-09-23 12:36:00,
2013-09-23 05:51:00,52.6,49.0,30.02,SSE,167,0.0,2.0,88,0.00,,,0.00,weatherlink.com 1.10,2013-09-23 12:51:00,
2013-09-23 06:06:00,52.5,49.0,30.02,SE,135,0.0,2.0,89,0.00,,,0.00,weatherlink.com 1.10,2013-09-23 13:06:00,
2013-09-23 06:21:00,52.7,49.0,30.03,West,272,0.0,2.0,88,0.00,,,0.00,weatherlink.com 1.10,2013-09-23 13:21:00,
2013-09-23 06:36:00,52.3,49.0,30.03,SSW,205,0.0,1.0,89,0.00,,,0.00,weatherlink.com 1.10,2013-09-23 13:36:00,
2013-09-23 06:51:00,52.4,49.0,30.03,SSW,193,0.0,1.0,89,0.00,,,0.00,weatherlink.com 1.10,2013-09-23 13:51:00,
2013-09-23 07:06:00,52.0,49.0,30.03,SSW,193,0.0,0.0,90,0.00,,,0.00,weatherlink.com 1.10,2013-09-23 14:06:00,
2013-09-23 07:21:00,52.2,50.0,30.03,SSE,162,0.0,0.0,91,0.00,,,0.00,weatherlink.com 1.10,2013-09-23 14:21:00,
2013-09-23 07:36:00,53.5,50.0,30.04,SSE,150,0.0,2.0,89,0.00,,,0.00,weatherlink.com 1.10,2013-09-23 14:36:00,
2013-09-23 07:51:00,57.0,52.0,30.04,SE,131,0.0,2.0,83,0.00,,,0.00,weatherlink.com 1.10,2013-09-23 14:51:00,
2013-09-23 08:06:00,59.4,53.0,30.04,SSE,153,2.0,3.0,78,0.00,,,0.00,weatherlink.com 1.10,2013-09-23 15:06:00,
2013-09-23 08:21:00,60.9,53.0,30.04,ESE,110,1.0,4.0,76,0.00,,,0.00,weatherlink.com 1.10,2013-09-23 15:21:00,
2013-09-23 08:36:00,61.5,53.0,30.04,NNE,22,2.0,4.0,74,0.00,,,0.00,weatherlink.com 1.10,2013-09-23 15:36:00,
2013-09-23 08:51:00,61.9,54.0,30.05,NW,316,1.0,5.0,74,0.00,,,0.00,weatherlink.com 1.10,2013-09-23 15:51:00,
2013-09-23 09:06:00,63.0,54.0,30.05,NNW,348,1.0,5.0,73,0.00,,,0.00,weatherlink.com 1.10,2013-09-23 16:06:00,
2013-09-23 09:21:00,64.9,54.0,30.05,SE,136,1.0,4.0,69,0.00,,,0.00,weatherlink.com 1.10,2013-09-23 16:21:00,
2013-09-23 09:37:00,66.3,54.0,30.05,NNE,30,0.0,4.0,65,0.00,,,0.00,weatherlink.com 1.10,2013-09-23 16:37:00,
2013-09-23 09:52:00,66.9,54.0,30.06,NNE,27,1.0,5.0,64,0.00,,,0.00,weatherlink.com 1.10,2013-09-23 16:52:00,
2013-09-23 10:07:00,67.4,55.0,30.06,North,6,2.0,6.0,64,0.00,,,0.00,weatherlink.com 1.10,2013-09-23 17:07:00,
2013-09-23 10:22:00,68.4,54.0,30.06,ENE,63,1.0,6.0,61,0.00,,,0.00,weatherlink.com 1.10,2013-09-23 17:22:00,
2013-09-23 10:37:00,69.6,54.0,30.06,East,98,2.0,5.0,59,0.00,,,0.00,weatherlink.com 1.10,2013-09-23 17:37:00,
2013-09-23 10:52:00,69.9,54.0,30.06,North,352,5.0,6.0,58,0.00,,,0.00,weatherlink.com 1.10,2013-09-23 17:52:00,
2013-09-23 11:07:00,70.7,54.0,30.05,NW,321,1.0,6.0,56,0.00,,,0.00,weatherlink.com 1.10,2013-09-23 18:07:00,
2013-09-23 11:22:00,72.7,54.0,30.05,NW,319,1.0,6.0,53,0.00,,,0.00,weatherlink.com 1.10,2013-09-23 18:22:00,
2013-09-23 11:37:00,73.4,55.0,30.05,ESE,104,1.0,3.0,52,0.00,,,0.00,weatherlink.com 1.10,2013-09-23 18:37:00,
2013-09-23 11:52:00,73.3,54.0,30.05,ENE,63,3.0,5.0,51,0.00,,,0.00,weatherlink.com 1.10,2013-09-23 18:52:00,
2013-09-23 12:07:00,73.9,51.0,30.05,North,1,5.0,5.0,45,0.00,,,0.00,weatherlink.com 1.10,2013-09-23 19:07:00,
2013-09-23 12:22:00,74.7,52.0,30.05,East,91,3.0,4.0,46,0.00,,,0.00,weatherlink.com 1.10,2013-09-23 19:22:00,
2013-09-23 12:37:00,75.3,54.0,30.04,NE,54,2.0,7.0,48,0.00,,,0.00,weatherlink.com 1.10,2013-09-23 19:37:00,
2013-09-23 12:52:00,76.0,54.0,30.03,West,275,2.0,8.0,47,0.00,,,0.00,weatherlink.com 1.10,2013-09-23 19:52:00,
2013-09-23 13:07:00,77.4,54.0,30.03,South,176,1.0,6.0,45,0.00,,,0.00,weatherlink.com 1.10,2013-09-23 20:07:00,
2013-09-23 13:22:00,77.5,54.0,30.02,SE,127,1.0,4.0,45,0.00,,,0.00,weatherlink.com 1.10,2013-09-23 20:22:00,
2013-09-23 13:37:00,77.9,55.0,30.02,West,281,2.0,4.0,45,0.00,,,0.00,weatherlink.com 1.10,2013-09-23 20:37:00,
2013-09-23 13:52:00,77.7,54.0,30.01,SE,135,2.0,5.0,44,0.00,,,0.00,weatherlink.com 1.10,2013-09-23 20:52:00,
2013-09-23 14:07:00,77.5,54.0,30.01,East,101,1.0,8.0,44,0.00,,,0.00,weatherlink.com 1.10,2013-09-23 21:07:00,
2013-09-23 14:22:00,78.5,55.0,30.00,ESE,110,1.0,5.0,44,0.00,,,0.00,weatherlink.com 1.10,2013-09-23 21:22:00,
2013-09-23 14:37:00,79.0,54.0,30.00,NW,323,2.0,5.0,42,0.00,,,0.00,weatherlink.com 1.10,2013-09-23 21:37:00,
2013-09-23 14:52:00,79.0,54.0,30.00,East,81,4.0,6.0,42,0.00,,,0.00,weatherlink.com 1.10,2013-09-23 21:52:00,
2013-09-23 15:07:00,79.2,53.0,30.00,NW,326,2.0,4.0,41,0.00,,,0.00,weatherlink.com 1.10,2013-09-23 22:07:00,
2013-09-23 15:22:00,79.7,55.0,29.99,NNE,32,2.0,4.0,42,0.00,,,0.00,weatherlink.com 1.10,2013-09-23 22:22:00,
2013-09-23 15:37:00,79.4,55.0,29.98,East,82,1.0,5.0,43,0.00,,,0.00,weatherlink.com 1.10,2013-09-23 22:37:00,
2013-09-23 15:52:00,79.5,55.0,29.98,WNW,291,1.0,6.0,43,0.00,,,0.00,weatherlink.com 1.10,2013-09-23 22:52:00,
2013-09-23 16:08:00,79.5,54.0,29.98,NNE,18,1.0,4.0,42,0.00,,,0.00,weatherlink.com 1.10,2013-09-23 23:08:00,
2013-09-23 16:23:00,79.8,54.0,29.98,East,89,2.0,3.0,41,0.00,,,0.00,weatherlink.com 1.10,2013-09-23 23:23:00,
2013-09-23 16:38:00,79.0,53.0,29.98,ENE,65,2.0,4.0,40,0.00,,,0.00,weatherlink.com 1.10,2013-09-23 23:38:00,
2013-09-23 16:53:00,78.6,52.0,29.97,North,5,1.0,3.0,40,0.00,,,0.00,weatherlink.com 1.10,2013-09-23 23:53:00,
2013-09-23 17:08:00,77.6,51.0,29.97,NE,53,2.0,4.0,40,0.00,,,0.00,weatherlink.com 1.10,2013-09-24 00:08:00,
2013-09-23 17:23:00,76.7,51.0,29.97,NE,36,0.0,2.0,41,0.00,,,0.00,weatherlink.com 1.10,2013-09-24 00:23:00,
2013-09-23 17:38:00,76.0,52.0,29.97,NE,34,3.0,3.0,43,0.00,,,0.00,weatherlink.com 1.10,2013-09-24 00:38:00,
2013-09-23 17:53:00,75.1,52.0,29.97,NW,309,0.0,4.0,45,0.00,,,0.00,weatherlink.com 1.10,2013-09-24 00:53:00,
2013-09-23 18:08:00,74.1,52.0,29.96,NW,317,0.0,3.0,47,0.00,,,0.00,weatherlink.com 1.10,2013-09-24 01:08:00,
2013-09-23 18:23:00,73.1,53.0,29.96,WNW,283,0.0,2.0,50,0.00,,,0.00,weatherlink.com 1.10,2013-09-24 01:23:00,
2013-09-23 18:38:00,72.1,53.0,29.96,West,264,0.0,2.0,51,0.00,,,0.00,weatherlink.com 1.10,2013-09-24 01:38:00,
2013-09-23 18:53:00,70.8,53.0,29.96,SSE,165,0.0,1.0,53,0.00,,,0.00,weatherlink.com 1.10,2013-09-24 01:53:00,
2013-09-23 19:08:00,69.3,52.0,29.97,South,190,1.0,1.0,55,0.00,,,0.00,weatherlink.com 1.10,2013-09-24 02:08:00,
2013-09-23 19:23:00,67.8,52.0,29.97,WSW,257,1.0,2.0,58,0.00,,,0.00,weatherlink.com 1.10,2013-09-24 02:23:00,
2013-09-23 19:38:00,67.1,53.0,29.97,WSW,257,0.0,1.0,62,0.00,,,0.00,weatherlink.com 1.10,2013-09-24 02:38:00,
2013-09-23 19:53:00,66.3,53.0,29.98,WSW,257,0.0,1.0,62,0.00,,,0.00,weatherlink.com 1.10,2013-09-24 02:53:00,
2013-09-23 20:08:00,65.5,53.0,29.98,West,260,0.0,1.0,65,0.00,,,0.00,weatherlink.com 1.10,2013-09-24 03:08:00,
2013-09-23 20:23:00,65.2,54.0,29.98,West,280,1.0,1.0,67,0.00,,,0.00,weatherlink.com 1.10,2013-09-24 03:23:00,
2013-09-23 20:38:00,64.7,54.0,29.98,West,280,0.0,1.0,68,0.00,,,0.00,weatherlink.com 1.10,2013-09-24 03:38:00,
2013-09-23 20:53:00,63.9,54.0,29.99,West,259,0.0,2.0,69,0.00,,,0.00,weatherlink.com 1.10,2013-09-24 03:53:00,
2013-09-23 21:08:00,62.9,53.0,29.99,West,260,0.0,1.0,71,0.00,,,0.00,weatherlink.com 1.10,2013-09-24 04:08:00,
2013-09-23 21:16:00,62.2,53.1,29.99,West,260,0.0,0.0,72,0.00,,,0.00,Wunderground v.1.15,2013-09-24 04:16:00,
2013-09-23 21:17:00,62.2,53.1,29.99,West,259,0.0,0.0,72,0.00,,,0.00,Wunderground v.1.15,2013-09-24 04:17:00,
2013-09-23 21:22:00,62.1,53.0,29.99,WSW,250,0.0,1.0,72,0.00,,,0.00,Wunderground v.1.15,2013-09-24 04:22:00,
2013-09-23 21:27:00,62.1,52.6,29.99,WSW,249,0.0,0.0,71,0.00,,,0.00,Wunderground v.1.15,2013-09-24 04:27:00,
2013-09-23 21:32:00,62.1,52.6,29.99,WSW,243,0.0,1.0,71,0.00,,,0.00,Wunderground v.1.15,2013-09-24 04:32:00,
2013-09-23 21:37:00,62.1,52.6,29.99,WSW,243,0.0,0.0,71,0.00,,,0.00,Wunderground v.1.15,2013-09-24 04:37:00,
2013-09-23 21:42:00,61.8,52.3,30.00,WSW,243,0.0,0.0,71,0.00,,,0.00,Wunderground v.1.15,2013-09-24 04:42:00,
2013-09-23 21:47:00,61.8,52.3,30.00,SW,215,0.0,0.0,71,0.00,,,0.00,Wunderground v.1.15,2013-09-24 04:47:00,
2013-09-23 21:52:00,61.8,52.3,30.00,East,98,0.0,0.0,71,0.00,,,0.00,Wunderground v.1.15,2013-09-24 04:52:00,
2013-09-23 21:57:00,61.8,52.3,29.99,ESE,117,0.0,2.0,71,0.00,,,0.00,Wunderground v.1.15,2013-09-24 04:57:00,
2013-09-23 22:02:00,61.9,52.0,29.99,ESE,117,0.0,1.0,70,0.00,,,0.00,Wunderground v.1.15,2013-09-24 05:02:00,
2013-09-23 22:07:00,61.6,52.1,29.99,SSW,200,0.0,1.0,71,0.00,,,0.00,Wunderground v.1.15,2013-09-24 05:07:00,
2013-09-23 22:12:00,61.4,52.3,30.00,SSW,200,0.0,0.0,72,0.00,,,0.00,Wunderground v.1.15,2013-09-24 05:12:00,
2013-09-23 22:17:00,61.0,51.9,29.99,ENE,78,0.0,1.0,72,0.00,,,0.00,Wunderground v.1.15,2013-09-24 05:17:00,
2013-09-23 22:22:00,60.9,51.8,29.99,East,81,1.0,1.0,72,0.00,,,0.00,Wunderground v.1.15,2013-09-24 05:22:00,
2013-09-23 22:27:00,60.7,52.0,29.99,SW,228,0.0,1.0,73,0.00,,,0.00,Wunderground v.1.15,2013-09-24 05:27:00,
2013-09-23 22:32:00,60.6,51.9,29.99,West,259,1.0,1.0,73,0.00,,,0.00,Wunderground v.1.15,2013-09-24 05:32:00,
2013-09-23 22:37:00,60.6,51.9,29.99,West,259,0.0,1.0,73,0.00,,,0.00,Wunderground v.1.15,2013-09-24 05:37:00,
2013-09-23 22:42:00,60.3,51.6,29.99,West,259,0.0,1.0,73,0.00,,,0.00,Wunderground v.1.15,2013-09-24 05:42:00,
2013-09-23 22:47:00,60.0,51.3,29.99,West,259,0.0,1.0,73,0.00,,,0.00,Wunderground v.1.15,2013-09-24 05:47:00,
2013-09-23 22:53:00,59.9,51.2,29.99,West,259,0.0,0.0,73,0.00,,,0.00,Wunderground v.1.15,2013-09-24 05:53:00,
2013-09-23 22:58:00,59.8,51.1,29.99,WSW,257,0.0,0.0,73,0.00,,,0.00,Wunderground v.1.15,2013-09-24 05:58:00,
2013-09-23 23:03:00,59.6,50.9,29.99,NE,56,0.0,0.0,73,0.00,,,0.00,Wunderground v.1.15,2013-09-24 06:03:00,
2013-09-23 23:08:00,59.4,51.1,29.98,NE,56,0.0,0.0,74,0.00,,,0.00,Wunderground v.1.15,2013-09-24 06:08:00,
2013-09-23 23:13:00,59.3,51.0,29.98,SSE,152,0.0,0.0,74,0.00,,,0.00,Wunderground v.1.15,2013-09-24 06:13:00,
2013-09-23 23:18:00,59.1,50.8,29.98,SSE,152,0.0,0.0,74,0.00,,,0.00,Wunderground v.1.15,2013-09-24 06:18:00,
2013-09-23 23:23:00,58.8,50.5,29.98,SSE,150,0.0,0.0,74,0.00,,,0.00,Wunderground v.1.15,2013-09-24 06:23:00,
2013-09-23 23:28:00,58.6,50.7,29.98,SSE,151,0.0,0.0,75,0.00,,,0.00,Wunderground v.1.15,2013-09-24 06:28:00,
2013-09-23 23:33:00,58.3,50.4,29.98,SSE,150,0.0,0.0,75,0.00,,,0.00,Wunderground v.1.15,2013-09-24 06:33:00,
2013-09-23 23:38:00,58.0,50.1,29.98,SSE,151,0.0,0.0,75,0.00,,,0.00,Wunderground v.1.15,2013-09-24 06:38:00,
2013-09-23 23:43:00,57.7,50.2,29.98,SSE,150,0.0,0.0,76,0.00,,,0.00,Wunderground v.1.15,2013-09-24 06:43:00,
2013-09-23 23:48:00,57.5,50.0,29.98,SSE,157,0.0,1.0,76,0.00,,,0.00,Wunderground v.1.15,2013-09-24 06:48:00,
2013-09-23 23:53:00,57.4,49.9,29.98,SSE,157,0.0,1.0,76,0.00,,,0.00,Wunderground v.1.15,2013-09-24 06:53:00,
2013-09-23 23:58:00,57.3,49.8,29.98,SSE,148,0.0,1.0,76,0.00,,,0.00,Wunderground v.1.15,2013-09-24 06:58:00,